sensor_id;sensor_type;location;lat;lon;timestamp;P1;durP1;ratioP1;P2;durP2;ratioP2
5553;SDS011;2800;49.528;8.666;2024-03-02T00:00:10;23.57;;;17.90;;
5553;SDS011;2800;49.528;8.666;2024-03-02T00:02:41;26.00;;;19.10;;
5553;SDS011;2800;49.528;8.666;2024-03-02T00:05:11;22.67;;;18.13;;
5553;SDS011;2800;49.528;8.666;2024-03-02T00:07:41;24.47;;;18.10;;
5553;SDS011;2800;49.528;8.666;2024-03-02T00:10:08;22.67;;;17.70;;
5553;SDS011;2800;49.528;8.666;2024-03-02T00:12:38;27.27;;;19.53;;
5553;SDS011;2800;49.528;8.666;2024-03-02T00:15:05;24.07;;;19.53;;
5553;SDS011;2800;49.528;8.666;2024-03-02T00:17:55;26.50;;;18.73;;
5553;SDS011;2800;49.528;8.666;2024-03-02T00:20:24;25.70;;;19.20;;
5553;SDS011;2800;49.528;8.666;2024-03-02T00:22:52;29.20;;;18.70;;
5553;SDS011;2800;49.528;8.666;2024-03-02T00:25:27;25.10;;;19.83;;
5553;SDS011;2800;49.528;8.666;2024-03-02T00:27:59;18.03;;;12.80;;
5553;SDS011;2800;49.528;8.666;2024-03-02T00:30:37;24.27;;;18.30;;
5553;SDS011;2800;49.528;8.666;2024-03-02T00:33:09;24.03;;;18.90;;
5553;SDS011;2800;49.528;8.666;2024-03-02T00:35:35;23.43;;;17.67;;
5553;SDS011;2800;49.528;8.666;2024-03-02T00:38:05;23.80;;;17.90;;
5553;SDS011;2800;49.528;8.666;2024-03-02T00:40:31;24.50;;;18.60;;
5553;SDS011;2800;49.528;8.666;2024-03-02T00:42:57;22.53;;;17.90;;
5553;SDS011;2800;49.528;8.666;2024-03-02T00:45:23;23.43;;;18.10;;
5553;SDS011;2800;49.528;8.666;2024-03-02T00:47:49;29.20;;;19.10;;
5553;SDS011;2800;49.528;8.666;2024-03-02T00:50:15;22.73;;;17.40;;
5553;SDS011;2800;49.528;8.666;2024-03-02T00:52:41;25.37;;;17.70;;
5553;SDS011;2800;49.528;8.666;2024-03-02T00:55:07;23.50;;;16.10;;
5553;SDS011;2800;49.528;8.666;2024-03-02T00:57:33;24.60;;;16.43;;
5553;SDS011;2800;49.528;8.666;2024-03-02T00:59:59;20.57;;;15.90;;
5553;SDS011;2800;49.528;8.666;2024-03-02T01:02:25;24.40;;;16.60;;
5553;SDS011;2800;49.528;8.666;2024-03-02T01:04:51;20.27;;;14.60;;
5553;SDS011;2800;49.528;8.666;2024-03-02T01:07:17;19.17;;;14.30;;
5553;SDS011;2800;49.528;8.666;2024-03-02T01:09:42;22.70;;;16.33;;
5553;SDS011;2800;49.528;8.666;2024-03-02T01:12:08;20.10;;;16.13;;
5553;SDS011;2800;49.528;8.666;2024-03-02T01:14:34;20.40;;;15.27;;
5553;SDS011;2800;49.528;8.666;2024-03-02T01:17:00;23.37;;;15.40;;
5553;SDS011;2800;49.528;8.666;2024-03-02T01:19:28;20.77;;;14.10;;
5553;SDS011;2800;49.528;8.666;2024-03-02T01:21:54;21.20;;;14.30;;
5553;SDS011;2800;49.528;8.666;2024-03-02T01:24:19;20.50;;;14.60;;
5553;SDS011;2800;49.528;8.666;2024-03-02T01:26:45;19.77;;;14.30;;
5553;SDS011;2800;49.528;8.666;2024-03-02T01:29:10;20.60;;;14.80;;
5553;SDS011;2800;49.528;8.666;2024-03-02T01:31:36;22.13;;;15.03;;
5553;SDS011;2800;49.528;8.666;2024-03-02T01:34:01;21.20;;;13.90;;
5553;SDS011;2800;49.528;8.666;2024-03-02T01:36:27;15.73;;;12.00;;
5553;SDS011;2800;49.528;8.666;2024-03-02T01:38:52;20.20;;;13.30;;
5553;SDS011;2800;49.528;8.666;2024-03-02T01:41:18;17.53;;;13.43;;
5553;SDS011;2800;49.528;8.666;2024-03-02T01:43:43;21.10;;;12.10;;
5553;SDS011;2800;49.528;8.666;2024-03-02T01:46:09;15.90;;;12.30;;
5553;SDS011;2800;49.528;8.666;2024-03-02T01:48:35;18.07;;;11.20;;
5553;SDS011;2800;49.528;8.666;2024-03-02T01:51:00;15.50;;;11.60;;
5553;SDS011;2800;49.528;8.666;2024-03-02T01:53:26;14.20;;;10.90;;
5553;SDS011;2800;49.528;8.666;2024-03-02T01:55:51;14.37;;;9.87;;
5553;SDS011;2800;49.528;8.666;2024-03-02T01:58:17;14.33;;;11.10;;
5553;SDS011;2800;49.528;8.666;2024-03-02T02:00:43;17.23;;;12.23;;
5553;SDS011;2800;49.528;8.666;2024-03-02T02:03:09;17.10;;;11.70;;
5553;SDS011;2800;49.528;8.666;2024-03-02T02:05:35;15.93;;;11.47;;
5553;SDS011;2800;49.528;8.666;2024-03-02T02:08:01;15.43;;;11.03;;
5553;SDS011;2800;49.528;8.666;2024-03-02T02:10:26;16.20;;;11.03;;
5553;SDS011;2800;49.528;8.666;2024-03-02T02:12:52;15.90;;;10.80;;
5553;SDS011;2800;49.528;8.666;2024-03-02T02:15:24;15.60;;;11.30;;
5553;SDS011;2800;49.528;8.666;2024-03-02T02:17:54;19.77;;;10.97;;
5553;SDS011;2800;49.528;8.666;2024-03-02T02:20:20;15.80;;;11.30;;
5553;SDS011;2800;49.528;8.666;2024-03-02T02:23:01;14.37;;;9.27;;
5553;SDS011;2800;49.528;8.666;2024-03-02T02:25:28;15.50;;;10.87;;
5553;SDS011;2800;49.528;8.666;2024-03-02T02:27:54;15.47;;;10.80;;
5553;SDS011;2800;49.528;8.666;2024-03-02T02:30:25;14.13;;;9.90;;
5553;SDS011;2800;49.528;8.666;2024-03-02T02:32:51;16.13;;;10.53;;
5553;SDS011;2800;49.528;8.666;2024-03-02T02:35:17;15.67;;;11.53;;
5553;SDS011;2800;49.528;8.666;2024-03-02T02:37:43;13.20;;;10.23;;
5553;SDS011;2800;49.528;8.666;2024-03-02T02:40:10;15.43;;;10.90;;
5553;SDS011;2800;49.528;8.666;2024-03-02T02:42:37;15.03;;;10.30;;
5553;SDS011;2800;49.528;8.666;2024-03-02T02:45:03;14.63;;;10.80;;
5553;SDS011;2800;49.528;8.666;2024-03-02T02:47:29;16.93;;;10.70;;
5553;SDS011;2800;49.528;8.666;2024-03-02T02:49:55;13.43;;;9.40;;
5553;SDS011;2800;49.528;8.666;2024-03-02T02:52:21;16.93;;;11.83;;
5553;SDS011;2800;49.528;8.666;2024-03-02T02:54:47;16.20;;;11.10;;
5553;SDS011;2800;49.528;8.666;2024-03-02T02:57:12;14.13;;;10.60;;
5553;SDS011;2800;49.528;8.666;2024-03-02T02:59:38;15.27;;;11.00;;
5553;SDS011;2800;49.528;8.666;2024-03-02T03:02:03;13.50;;;9.60;;
5553;SDS011;2800;49.528;8.666;2024-03-02T03:04:29;12.37;;;9.63;;
5553;SDS011;2800;49.528;8.666;2024-03-02T03:06:54;14.40;;;10.23;;
5553;SDS011;2800;49.528;8.666;2024-03-02T03:09:20;12.83;;;9.00;;
5553;SDS011;2800;49.528;8.666;2024-03-02T03:11:45;14.57;;;9.57;;
5553;SDS011;2800;49.528;8.666;2024-03-02T03:14:11;12.50;;;9.40;;
5553;SDS011;2800;49.528;8.666;2024-03-02T03:16:36;14.53;;;9.30;;
5553;SDS011;2800;49.528;8.666;2024-03-02T03:19:02;37.77;;;30.20;;
5553;SDS011;2800;49.528;8.666;2024-03-02T03:21:28;14.23;;;9.00;;
5553;SDS011;2800;49.528;8.666;2024-03-02T03:23:53;13.00;;;9.37;;
5553;SDS011;2800;49.528;8.666;2024-03-02T03:26:20;13.93;;;10.27;;
5553;SDS011;2800;49.528;8.666;2024-03-02T03:28:45;14.27;;;9.10;;
5553;SDS011;2800;49.528;8.666;2024-03-02T03:31:11;11.77;;;8.60;;
5553;SDS011;2800;49.528;8.666;2024-03-02T03:33:37;13.70;;;9.57;;
5553;SDS011;2800;49.528;8.666;2024-03-02T03:36:02;12.97;;;8.83;;
5553;SDS011;2800;49.528;8.666;2024-03-02T03:38:28;12.17;;;8.30;;
5553;SDS011;2800;49.528;8.666;2024-03-02T03:40:54;13.60;;;9.23;;
5553;SDS011;2800;49.528;8.666;2024-03-02T03:43:20;14.73;;;9.33;;
5553;SDS011;2800;49.528;8.666;2024-03-02T03:45:45;12.43;;;8.60;;
5553;SDS011;2800;49.528;8.666;2024-03-02T03:48:11;13.23;;;9.30;;
5553;SDS011;2800;49.528;8.666;2024-03-02T03:50:36;12.57;;;8.70;;
5553;SDS011;2800;49.528;8.666;2024-03-02T03:53:03;16.70;;;8.90;;
5553;SDS011;2800;49.528;8.666;2024-03-02T03:55:28;14.60;;;10.50;;
5553;SDS011;2800;49.528;8.666;2024-03-02T03:57:54;14.63;;;9.43;;
5553;SDS011;2800;49.528;8.666;2024-03-02T04:00:19;13.57;;;9.87;;
5553;SDS011;2800;49.528;8.666;2024-03-02T04:02:45;12.90;;;8.80;;
5553;SDS011;2800;49.528;8.666;2024-03-02T04:05:10;14.57;;;9.87;;
5553;SDS011;2800;49.528;8.666;2024-03-02T04:07:36;12.10;;;9.20;;
5553;SDS011;2800;49.528;8.666;2024-03-02T04:10:08;13.60;;;9.40;;
5553;SDS011;2800;49.528;8.666;2024-03-02T04:12:35;12.53;;;9.47;;
5553;SDS011;2800;49.528;8.666;2024-03-02T04:15:02;11.43;;;8.10;;
5553;SDS011;2800;49.528;8.666;2024-03-02T04:17:29;12.93;;;9.43;;
5553;SDS011;2800;49.528;8.666;2024-03-02T04:19:55;14.13;;;10.23;;
5553;SDS011;2800;49.528;8.666;2024-03-02T04:22:21;13.80;;;9.77;;
5553;SDS011;2800;49.528;8.666;2024-03-02T04:24:46;14.73;;;9.40;;
5553;SDS011;2800;49.528;8.666;2024-03-02T04:27:12;13.37;;;9.30;;
5553;SDS011;2800;49.528;8.666;2024-03-02T04:29:37;13.27;;;9.80;;
5553;SDS011;2800;49.528;8.666;2024-03-02T04:32:03;12.40;;;8.87;;
5553;SDS011;2800;49.528;8.666;2024-03-02T04:34:29;15.20;;;10.47;;
5553;SDS011;2800;49.528;8.666;2024-03-02T04:36:55;14.00;;;9.30;;
5553;SDS011;2800;49.528;8.666;2024-03-02T04:39:20;14.83;;;8.93;;
5553;SDS011;2800;49.528;8.666;2024-03-02T04:41:46;13.07;;;9.40;;
5553;SDS011;2800;49.528;8.666;2024-03-02T04:44:11;14.50;;;9.93;;
5553;SDS011;2800;49.528;8.666;2024-03-02T04:46:37;15.13;;;10.70;;
5553;SDS011;2800;49.528;8.666;2024-03-02T04:49:02;14.17;;;9.93;;
5553;SDS011;2800;49.528;8.666;2024-03-02T04:51:28;15.03;;;9.90;;
5553;SDS011;2800;49.528;8.666;2024-03-02T04:53:53;14.23;;;8.63;;
5553;SDS011;2800;49.528;8.666;2024-03-02T04:56:19;11.43;;;8.73;;
5553;SDS011;2800;49.528;8.666;2024-03-02T04:59:04;14.30;;;8.67;;
5553;SDS011;2800;49.528;8.666;2024-03-02T05:01:29;13.17;;;9.07;;
5553;SDS011;2800;49.528;8.666;2024-03-02T05:03:55;15.97;;;9.43;;
5553;SDS011;2800;49.528;8.666;2024-03-02T05:06:21;10.80;;;7.37;;
5553;SDS011;2800;49.528;8.666;2024-03-02T05:08:47;11.80;;;8.97;;
5553;SDS011;2800;49.528;8.666;2024-03-02T05:11:13;12.17;;;9.17;;
5553;SDS011;2800;49.528;8.666;2024-03-02T05:13:59;11.47;;;8.53;;
5553;SDS011;2800;49.528;8.666;2024-03-02T05:16:25;13.33;;;8.97;;
5553;SDS011;2800;49.528;8.666;2024-03-02T05:18:50;12.27;;;9.63;;
5553;SDS011;2800;49.528;8.666;2024-03-02T05:21:16;16.63;;;11.27;;
5553;SDS011;2800;49.528;8.666;2024-03-02T05:23:41;20.70;;;10.43;;
5553;SDS011;2800;49.528;8.666;2024-03-02T05:26:07;16.17;;;12.13;;
5553;SDS011;2800;49.528;8.666;2024-03-02T05:28:33;18.23;;;13.30;;
5553;SDS011;2800;49.528;8.666;2024-03-02T05:30:58;16.13;;;12.83;;
5553;SDS011;2800;49.528;8.666;2024-03-02T05:33:24;17.70;;;14.30;;
5553;SDS011;2800;49.528;8.666;2024-03-02T05:35:49;20.70;;;15.10;;
5553;SDS011;2800;49.528;8.666;2024-03-02T05:38:15;20.03;;;15.27;;
5553;SDS011;2800;49.528;8.666;2024-03-02T05:40:41;24.60;;;19.50;;
5553;SDS011;2800;49.528;8.666;2024-03-02T05:43:07;21.70;;;17.93;;
5553;SDS011;2800;49.528;8.666;2024-03-02T05:45:32;26.13;;;15.40;;
5553;SDS011;2800;49.528;8.666;2024-03-02T05:47:58;20.73;;;16.00;;
5553;SDS011;2800;49.528;8.666;2024-03-02T05:50:23;21.63;;;16.33;;
5553;SDS011;2800;49.528;8.666;2024-03-02T05:52:49;21.30;;;14.97;;
5553;SDS011;2800;49.528;8.666;2024-03-02T05:55:14;20.20;;;16.63;;
5553;SDS011;2800;49.528;8.666;2024-03-02T05:57:40;21.63;;;16.27;;
5553;SDS011;2800;49.528;8.666;2024-03-02T06:00:08;24.47;;;18.30;;
5553;SDS011;2800;49.528;8.666;2024-03-02T06:02:34;21.10;;;17.20;;
5553;SDS011;2800;49.528;8.666;2024-03-02T06:05:03;15.47;;;12.10;;
5553;SDS011;2800;49.528;8.666;2024-03-02T06:07:29;14.93;;;11.10;;
5553;SDS011;2800;49.528;8.666;2024-03-02T06:09:54;14.50;;;11.03;;
5553;SDS011;2800;49.528;8.666;2024-03-02T06:12:20;15.97;;;10.40;;
5553;SDS011;2800;49.528;8.666;2024-03-02T06:14:45;15.70;;;10.57;;
5553;SDS011;2800;49.528;8.666;2024-03-02T06:17:11;14.57;;;10.40;;
5553;SDS011;2800;49.528;8.666;2024-03-02T06:19:37;15.87;;;11.07;;
5553;SDS011;2800;49.528;8.666;2024-03-02T06:22:02;13.50;;;10.30;;
5553;SDS011;2800;49.528;8.666;2024-03-02T06:24:28;14.80;;;11.60;;
5553;SDS011;2800;49.528;8.666;2024-03-02T06:26:54;16.47;;;13.23;;
5553;SDS011;2800;49.528;8.666;2024-03-02T06:29:19;21.80;;;12.60;;
5553;SDS011;2800;49.528;8.666;2024-03-02T06:31:45;15.07;;;11.47;;
5553;SDS011;2800;49.528;8.666;2024-03-02T06:34:10;14.40;;;11.27;;
5553;SDS011;2800;49.528;8.666;2024-03-02T06:36:36;17.40;;;11.07;;
5553;SDS011;2800;49.528;8.666;2024-03-02T06:39:03;15.10;;;11.20;;
5553;SDS011;2800;49.528;8.666;2024-03-02T06:41:28;13.83;;;10.30;;
5553;SDS011;2800;49.528;8.666;2024-03-02T06:43:54;15.30;;;9.90;;
5553;SDS011;2800;49.528;8.666;2024-03-02T06:46:24;15.93;;;11.37;;
5553;SDS011;2800;49.528;8.666;2024-03-02T06:48:50;18.90;;;14.73;;
5553;SDS011;2800;49.528;8.666;2024-03-02T06:51:16;20.60;;;15.77;;
5553;SDS011;2800;49.528;8.666;2024-03-02T06:53:41;18.97;;;14.10;;
5553;SDS011;2800;49.528;8.666;2024-03-02T06:56:07;15.83;;;11.90;;
5553;SDS011;2800;49.528;8.666;2024-03-02T06:58:33;15.80;;;12.03;;
5553;SDS011;2800;49.528;8.666;2024-03-02T07:00:58;17.43;;;11.40;;
5553;SDS011;2800;49.528;8.666;2024-03-02T07:03:25;17.73;;;14.93;;
5553;SDS011;2800;49.528;8.666;2024-03-02T07:05:51;20.33;;;15.30;;
5553;SDS011;2800;49.528;8.666;2024-03-02T07:08:16;21.20;;;15.67;;
5553;SDS011;2800;49.528;8.666;2024-03-02T07:10:42;21.00;;;15.77;;
5553;SDS011;2800;49.528;8.666;2024-03-02T07:13:07;19.53;;;14.17;;
5553;SDS011;2800;49.528;8.666;2024-03-02T07:15:33;19.30;;;14.50;;
5553;SDS011;2800;49.528;8.666;2024-03-02T07:18:17;19.67;;;14.30;;
5553;SDS011;2800;49.528;8.666;2024-03-02T07:20:42;18.67;;;14.43;;
5553;SDS011;2800;49.528;8.666;2024-03-02T07:23:08;20.83;;;16.13;;
5553;SDS011;2800;49.528;8.666;2024-03-02T07:25:34;21.10;;;16.73;;
5553;SDS011;2800;49.528;8.666;2024-03-02T07:27:59;19.47;;;16.07;;
5553;SDS011;2800;49.528;8.666;2024-03-02T07:30:25;21.13;;;17.53;;
5553;SDS011;2800;49.528;8.666;2024-03-02T07:32:50;21.60;;;17.70;;
5553;SDS011;2800;49.528;8.666;2024-03-02T07:35:16;26.80;;;17.70;;
5553;SDS011;2800;49.528;8.666;2024-03-02T07:37:43;21.73;;;16.23;;
5553;SDS011;2800;49.528;8.666;2024-03-02T07:40:09;20.73;;;16.73;;
5553;SDS011;2800;49.528;8.666;2024-03-02T07:42:38;17.93;;;15.13;;
5553;SDS011;2800;49.528;8.666;2024-03-02T07:45:04;20.30;;;15.50;;
5553;SDS011;2800;49.528;8.666;2024-03-02T07:47:31;19.30;;;14.90;;
5553;SDS011;2800;49.528;8.666;2024-03-02T07:49:58;19.07;;;15.27;;
5553;SDS011;2800;49.528;8.666;2024-03-02T07:52:23;20.83;;;16.13;;
5553;SDS011;2800;49.528;8.666;2024-03-02T07:54:49;18.90;;;14.00;;
5553;SDS011;2800;49.528;8.666;2024-03-02T07:57:14;22.53;;;18.27;;
5553;SDS011;2800;49.528;8.666;2024-03-02T07:59:40;18.50;;;14.33;;
5553;SDS011;2800;49.528;8.666;2024-03-02T08:02:06;15.73;;;13.00;;
5553;SDS011;2800;49.528;8.666;2024-03-02T08:04:32;31.43;;;16.93;;
5553;SDS011;2800;49.528;8.666;2024-03-02T08:06:57;21.67;;;15.60;;
5553;SDS011;2800;49.528;8.666;2024-03-02T08:09:23;23.37;;;18.50;;
5553;SDS011;2800;49.528;8.666;2024-03-02T08:11:48;28.50;;;17.93;;
5553;SDS011;2800;49.528;8.666;2024-03-02T08:14:14;23.93;;;16.40;;
5553;SDS011;2800;49.528;8.666;2024-03-02T08:16:40;21.83;;;16.47;;
5553;SDS011;2800;49.528;8.666;2024-03-02T08:19:06;24.50;;;15.57;;
5553;SDS011;2800;49.528;8.666;2024-03-02T08:21:32;23.50;;;17.00;;
5553;SDS011;2800;49.528;8.666;2024-03-02T08:24:00;22.50;;;17.57;;
5553;SDS011;2800;49.528;8.666;2024-03-02T08:26:27;21.90;;;16.50;;
5553;SDS011;2800;49.528;8.666;2024-03-02T08:28:54;22.87;;;15.43;;
5553;SDS011;2800;49.528;8.666;2024-03-02T08:31:20;23.33;;;15.23;;
5553;SDS011;2800;49.528;8.666;2024-03-02T08:33:46;22.43;;;15.90;;
5553;SDS011;2800;49.528;8.666;2024-03-02T08:36:11;21.70;;;15.03;;
5553;SDS011;2800;49.528;8.666;2024-03-02T08:38:37;21.27;;;15.67;;
5553;SDS011;2800;49.528;8.666;2024-03-02T08:41:02;19.83;;;13.67;;
5553;SDS011;2800;49.528;8.666;2024-03-02T08:43:28;22.23;;;15.03;;
5553;SDS011;2800;49.528;8.666;2024-03-02T08:45:54;19.83;;;14.90;;
5553;SDS011;2800;49.528;8.666;2024-03-02T08:48:20;20.23;;;15.37;;
5553;SDS011;2800;49.528;8.666;2024-03-02T08:50:46;22.13;;;14.80;;
5553;SDS011;2800;49.528;8.666;2024-03-02T08:53:11;21.87;;;16.57;;
5553;SDS011;2800;49.528;8.666;2024-03-02T08:55:37;19.30;;;14.23;;
5553;SDS011;2800;49.528;8.666;2024-03-02T08:58:02;21.67;;;14.90;;
5553;SDS011;2800;49.528;8.666;2024-03-02T09:00:28;18.43;;;13.90;;
5553;SDS011;2800;49.528;8.666;2024-03-02T09:02:54;16.33;;;12.67;;
5553;SDS011;2800;49.528;8.666;2024-03-02T09:05:19;14.43;;;11.60;;
5553;SDS011;2800;49.528;8.666;2024-03-02T09:07:45;17.03;;;12.20;;
5553;SDS011;2800;49.528;8.666;2024-03-02T09:10:10;14.67;;;10.93;;
5553;SDS011;2800;49.528;8.666;2024-03-02T09:12:36;16.43;;;11.97;;
5553;SDS011;2800;49.528;8.666;2024-03-02T09:15:03;16.70;;;11.83;;
5553;SDS011;2800;49.528;8.666;2024-03-02T09:17:29;15.50;;;11.30;;
5553;SDS011;2800;49.528;8.666;2024-03-02T09:19:55;15.50;;;10.80;;
5553;SDS011;2800;49.528;8.666;2024-03-02T09:22:20;19.07;;;11.23;;
5553;SDS011;2800;49.528;8.666;2024-03-02T09:24:46;18.17;;;11.83;;
5553;SDS011;2800;49.528;8.666;2024-03-02T09:27:11;18.67;;;11.07;;
5553;SDS011;2800;49.528;8.666;2024-03-02T09:29:37;20.90;;;12.80;;
5553;SDS011;2800;49.528;8.666;2024-03-02T09:32:03;18.17;;;12.27;;
5553;SDS011;2800;49.528;8.666;2024-03-02T09:34:30;15.97;;;11.80;;
5553;SDS011;2800;49.528;8.666;2024-03-02T09:36:56;16.80;;;12.00;;
5553;SDS011;2800;49.528;8.666;2024-03-02T09:39:22;19.00;;;11.67;;
5553;SDS011;2800;49.528;8.666;2024-03-02T09:41:48;16.37;;;11.30;;
5553;SDS011;2800;49.528;8.666;2024-03-02T09:44:14;15.67;;;10.90;;
5553;SDS011;2800;49.528;8.666;2024-03-02T09:46:40;16.70;;;11.20;;
5553;SDS011;2800;49.528;8.666;2024-03-02T09:49:08;17.43;;;11.13;;
5553;SDS011;2800;49.528;8.666;2024-03-02T09:51:37;15.97;;;10.70;;
5553;SDS011;2800;49.528;8.666;2024-03-02T09:54:03;17.40;;;10.70;;
5553;SDS011;2800;49.528;8.666;2024-03-02T09:56:29;16.83;;;11.13;;
5553;SDS011;2800;49.528;8.666;2024-03-02T09:58:55;14.07;;;10.33;;
5553;SDS011;2800;49.528;8.666;2024-03-02T10:01:20;17.60;;;11.13;;
5553;SDS011;2800;49.528;8.666;2024-03-02T10:03:46;14.13;;;10.03;;
5553;SDS011;2800;49.528;8.666;2024-03-02T10:06:21;14.20;;;10.20;;
5553;SDS011;2800;49.528;8.666;2024-03-02T10:08:48;15.90;;;10.47;;
5553;SDS011;2800;49.528;8.666;2024-03-02T10:14:10;13.93;;;9.57;;
5553;SDS011;2800;49.528;8.666;2024-03-02T10:16:40;15.27;;;10.57;;
5553;SDS011;2800;49.528;8.666;2024-03-02T10:19:22;13.40;;;9.37;;
5553;SDS011;2800;49.528;8.666;2024-03-02T10:21:52;14.17;;;9.93;;
5553;SDS011;2800;49.528;8.666;2024-03-02T10:24:20;15.40;;;9.93;;
5553;SDS011;2800;49.528;8.666;2024-03-02T10:26:46;12.90;;;9.60;;
5553;SDS011;2800;49.528;8.666;2024-03-02T10:29:12;15.67;;;10.40;;
5553;SDS011;2800;49.528;8.666;2024-03-02T10:31:38;16.57;;;10.43;;
5553;SDS011;2800;49.528;8.666;2024-03-02T10:34:05;15.38;;;10.93;;
5553;SDS011;2800;49.528;8.666;2024-03-02T10:36:32;15.70;;;9.82;;
5553;SDS011;2800;49.528;8.666;2024-03-02T10:39:01;14.40;;;9.03;;
5553;SDS011;2800;49.528;8.666;2024-03-02T10:41:28;15.00;;;9.80;;
5553;SDS011;2800;49.528;8.666;2024-03-02T10:43:59;12.67;;;9.17;;
5553;SDS011;2800;49.528;8.666;2024-03-02T10:46:27;14.20;;;9.23;;
5553;SDS011;2800;49.528;8.666;2024-03-02T10:48:56;12.95;;;8.90;;
5553;SDS011;2800;49.528;8.666;2024-03-02T10:51:29;22.23;;;9.00;;
5553;SDS011;2800;49.528;8.666;2024-03-02T10:53:59;12.47;;;8.50;;
5553;SDS011;2800;49.528;8.666;2024-03-02T10:56:32;12.80;;;8.27;;
5553;SDS011;2800;49.528;8.666;2024-03-02T10:59:06;15.07;;;8.20;;
5553;SDS011;2800;49.528;8.666;2024-03-02T11:01:58;12.10;;;8.47;;
5553;SDS011;2800;49.528;8.666;2024-03-02T11:04:28;17.13;;;8.00;;
5553;SDS011;2800;49.528;8.666;2024-03-02T11:07:04;9.93;;;6.37;;
5553;SDS011;2800;49.528;8.666;2024-03-02T11:09:33;11.00;;;6.23;;
5553;SDS011;2800;49.528;8.666;2024-03-02T11:12:06;9.30;;;5.80;;
5553;SDS011;2800;49.528;8.666;2024-03-02T11:14:37;9.03;;;5.63;;
5553;SDS011;2800;49.528;8.666;2024-03-02T11:17:08;8.30;;;5.33;;
5553;SDS011;2800;49.528;8.666;2024-03-02T11:19:34;8.10;;;4.33;;
5553;SDS011;2800;49.528;8.666;2024-03-02T11:22:02;10.90;;;8.00;;
5553;SDS011;2800;49.528;8.666;2024-03-02T11:24:28;9.03;;;6.63;;
5553;SDS011;2800;49.528;8.666;2024-03-02T11:26:58;8.30;;;5.13;;
5553;SDS011;2800;49.528;8.666;2024-03-02T11:32:03;11.27;;;5.17;;
5553;SDS011;2800;49.528;8.666;2024-03-02T11:34:33;8.83;;;5.27;;
5553;SDS011;2800;49.528;8.666;2024-03-02T11:37:04;9.00;;;5.47;;
5553;SDS011;2800;49.528;8.666;2024-03-02T11:39:30;7.53;;;4.33;;
5553;SDS011;2800;49.528;8.666;2024-03-02T11:41:57;6.90;;;4.03;;
5553;SDS011;2800;49.528;8.666;2024-03-02T11:44:44;6.30;;;3.73;;
5553;SDS011;2800;49.528;8.666;2024-03-02T11:47:13;8.20;;;3.53;;
5553;SDS011;2800;49.528;8.666;2024-03-02T11:52:13;6.80;;;4.10;;
5553;SDS011;2800;49.528;8.666;2024-03-02T11:54:40;8.40;;;4.20;;
5553;SDS011;2800;49.528;8.666;2024-03-02T11:57:12;8.43;;;3.63;;
5553;SDS011;2800;49.528;8.666;2024-03-02T11:59:41;5.07;;;2.93;;
5553;SDS011;2800;49.528;8.666;2024-03-02T12:02:12;7.10;;;3.50;;
5553;SDS011;2800;49.528;8.666;2024-03-02T12:04:42;5.57;;;3.03;;
5553;SDS011;2800;49.528;8.666;2024-03-02T12:07:08;5.20;;;2.93;;
5553;SDS011;2800;49.528;8.666;2024-03-02T12:09:34;3.73;;;2.17;;
5553;SDS011;2800;49.528;8.666;2024-03-02T12:12:06;5.27;;;2.63;;
5553;SDS011;2800;49.528;8.666;2024-03-02T12:14:33;4.10;;;1.77;;
5553;SDS011;2800;49.528;8.666;2024-03-02T12:17:00;5.10;;;2.20;;
5553;SDS011;2800;49.528;8.666;2024-03-02T12:19:26;4.90;;;1.80;;
5553;SDS011;2800;49.528;8.666;2024-03-02T12:21:54;3.30;;;1.30;;
5553;SDS011;2800;49.528;8.666;2024-03-02T12:24:24;4.30;;;1.80;;
5553;SDS011;2800;49.528;8.666;2024-03-02T12:26:52;3.70;;;1.60;;
5553;SDS011;2800;49.528;8.666;2024-03-02T12:29:18;3.97;;;1.87;;
5553;SDS011;2800;49.528;8.666;2024-03-02T12:31:45;4.77;;;1.90;;
5553;SDS011;2800;49.528;8.666;2024-03-02T12:34:13;5.30;;;1.70;;
5553;SDS011;2800;49.528;8.666;2024-03-02T12:36:40;4.00;;;1.53;;
5553;SDS011;2800;49.528;8.666;2024-03-02T12:39:07;5.57;;;1.70;;
5553;SDS011;2800;49.528;8.666;2024-03-02T12:41:35;3.20;;;1.37;;
5553;SDS011;2800;49.528;8.666;2024-03-02T12:44:01;4.90;;;1.97;;
5553;SDS011;2800;49.528;8.666;2024-03-02T12:46:27;4.40;;;1.80;;
5553;SDS011;2800;49.528;8.666;2024-03-02T12:48:52;4.30;;;1.80;;
5553;SDS011;2800;49.528;8.666;2024-03-02T12:51:18;4.30;;;1.87;;
5553;SDS011;2800;49.528;8.666;2024-03-02T12:53:44;3.90;;;1.90;;
5553;SDS011;2800;49.528;8.666;2024-03-02T12:56:09;4.40;;;2.07;;
5553;SDS011;2800;49.528;8.666;2024-03-02T12:58:39;4.63;;;2.10;;
5553;SDS011;2800;49.528;8.666;2024-03-02T13:01:06;3.70;;;1.73;;
5553;SDS011;2800;49.528;8.666;2024-03-02T13:03:40;4.63;;;2.00;;
5553;SDS011;2800;49.528;8.666;2024-03-02T13:06:06;4.37;;;2.20;;
5553;SDS011;2800;49.528;8.666;2024-03-02T13:08:33;4.53;;;2.10;;
5553;SDS011;2800;49.528;8.666;2024-03-02T13:11:00;4.60;;;2.40;;
5553;SDS011;2800;49.528;8.666;2024-03-02T13:13:25;13.77;;;2.00;;
5553;SDS011;2800;49.528;8.666;2024-03-02T13:15:55;4.20;;;2.20;;
5553;SDS011;2800;49.528;8.666;2024-03-02T13:18:21;6.90;;;2.10;;
5553;SDS011;2800;49.528;8.666;2024-03-02T13:20:47;4.30;;;2.10;;
5553;SDS011;2800;49.528;8.666;2024-03-02T13:23:12;4.20;;;1.90;;
5553;SDS011;2800;49.528;8.666;2024-03-02T13:25:38;5.60;;;2.20;;
5553;SDS011;2800;49.528;8.666;2024-03-02T13:28:04;5.03;;;2.30;;
5553;SDS011;2800;49.528;8.666;2024-03-02T13:30:29;4.10;;;1.90;;
5553;SDS011;2800;49.528;8.666;2024-03-02T13:32:55;4.77;;;2.07;;
5553;SDS011;2800;49.528;8.666;2024-03-02T13:35:20;3.70;;;1.80;;
5553;SDS011;2800;49.528;8.666;2024-03-02T13:37:46;4.40;;;2.20;;
5553;SDS011;2800;49.528;8.666;2024-03-02T13:40:12;22.63;;;17.93;;
5553;SDS011;2800;49.528;8.666;2024-03-02T13:42:42;4.70;;;2.50;;
5553;SDS011;2800;49.528;8.666;2024-03-02T13:45:08;16.10;;;13.10;;
5553;SDS011;2800;49.528;8.666;2024-03-02T13:47:33;4.70;;;2.20;;
5553;SDS011;2800;49.528;8.666;2024-03-02T13:49:59;4.00;;;1.83;;
5553;SDS011;2800;49.528;8.666;2024-03-02T13:52:24;5.40;;;2.10;;
5553;SDS011;2800;49.528;8.666;2024-03-02T13:54:51;5.10;;;1.80;;
5553;SDS011;2800;49.528;8.666;2024-03-02T13:57:19;3.50;;;1.50;;
5553;SDS011;2800;49.528;8.666;2024-03-02T13:59:45;4.10;;;1.73;;
5553;SDS011;2800;49.528;8.666;2024-03-02T14:02:11;4.20;;;1.80;;
5553;SDS011;2800;49.528;8.666;2024-03-02T14:04:37;3.87;;;1.60;;
5553;SDS011;2800;49.528;8.666;2024-03-02T14:07:04;3.30;;;1.43;;
5553;SDS011;2800;49.528;8.666;2024-03-02T14:09:32;3.87;;;1.67;;
5553;SDS011;2800;49.528;8.666;2024-03-02T14:11:58;7.57;;;4.30;;
5553;SDS011;2800;49.528;8.666;2024-03-02T14:14:25;3.50;;;1.40;;
5553;SDS011;2800;49.528;8.666;2024-03-02T14:16:52;4.60;;;1.50;;
5553;SDS011;2800;49.528;8.666;2024-03-02T14:19:17;4.00;;;1.50;;
5553;SDS011;2800;49.528;8.666;2024-03-02T14:21:43;5.27;;;1.60;;
5553;SDS011;2800;49.528;8.666;2024-03-02T14:24:09;11.30;;;2.10;;
5553;SDS011;2800;49.528;8.666;2024-03-02T14:26:35;3.40;;;1.40;;
5553;SDS011;2800;49.528;8.666;2024-03-02T14:29:01;3.40;;;1.30;;
5553;SDS011;2800;49.528;8.666;2024-03-02T14:31:28;3.20;;;1.20;;
5553;SDS011;2800;49.528;8.666;2024-03-02T14:33:54;4.10;;;1.30;;
5553;SDS011;2800;49.528;8.666;2024-03-02T14:36:19;3.30;;;1.20;;
5553;SDS011;2800;49.528;8.666;2024-03-02T14:38:45;3.00;;;1.30;;
5553;SDS011;2800;49.528;8.666;2024-03-02T14:41:11;3.50;;;1.40;;
5553;SDS011;2800;49.528;8.666;2024-03-02T14:43:37;2.70;;;1.03;;
5553;SDS011;2800;49.528;8.666;2024-03-02T14:46:02;3.70;;;1.40;;
5553;SDS011;2800;49.528;8.666;2024-03-02T14:48:28;3.80;;;1.50;;
5553;SDS011;2800;49.528;8.666;2024-03-02T14:50:54;3.30;;;1.30;;
5553;SDS011;2800;49.528;8.666;2024-03-02T14:53:20;3.10;;;1.17;;
5553;SDS011;2800;49.528;8.666;2024-03-02T14:55:46;3.20;;;1.30;;
5553;SDS011;2800;49.528;8.666;2024-03-02T14:58:11;4.43;;;1.40;;
5553;SDS011;2800;49.528;8.666;2024-03-02T15:00:37;3.77;;;1.30;;
5553;SDS011;2800;49.528;8.666;2024-03-02T15:03:03;4.40;;;1.60;;